Dunwoody, Georgia
Current Conditions -  °F | °C
As of 1:53 PM on Saturday 20 Dec 2014 (Local Time) from KPDK Reporting Station
Haze Haze  
Wind Chill: 50°   Ceiling: 1300
Heat Index: 50°   Visibility: 6mi
Dew Point: 44°   Wind: 6mph
Humidity: 80%   Direction: 10°N
Pressure: 30.15"   Gusts: NA
Location:  33.95°N, 84.33°W
Report Text: KPDK 201853Z 01005KT 6SM HZ OVC013 10/07 A3015 RMK AO2 SLP219 T01000067
Loading
Personal Weather Stations






























Interactive Weather Map New forecast layout! Learn more

10-Day Weather Forecast

Advertisements
Track Severe Weather on mobile